sensor_id;sensor_type;location;lat;lon;timestamp;P1;P2;P0
65383;PMS5003;51986;52.788;41.368;2022-12-29T00:03:01;0.00;0.00;0.00
65383;PMS5003;51986;52.788;41.368;2022-12-29T00:05:28;0.00;0.00;0.00
65383;PMS5003;51986;52.788;41.368;2022-12-29T00:07:55;0.00;0.00;0.00
65383;PMS5003;51986;52.788;41.368;2022-12-29T00:10:22;0.00;0.00;0.00
65383;PMS5003;51986;52.788;41.368;2022-12-29T00:12:49;0.00;0.00;0.00
65383;PMS5003;51986;52.788;41.368;2022-12-29T00:15:15;0.00;0.00;0.00
65383;PMS5003;51986;52.788;41.368;2022-12-29T00:17:43;0.00;0.00;0.00
65383;PMS5003;51986;52.788;41.368;2022-12-29T00:20:09;0.00;0.00;0.00
65383;PMS5003;51986;52.788;41.368;2022-12-29T00:22:36;1.00;1.00;0.00
65383;PMS5003;51986;52.788;41.368;2022-12-29T00:25:04;0.00;0.00;0.00
65383;PMS5003;51986;52.788;41.368;2022-12-29T00:27:32;1.00;1.00;1.00
65383;PMS5003;51986;52.788;41.368;2022-12-29T00:29:59;0.00;0.00;0.00
65383;PMS5003;51986;52.788;41.368;2022-12-29T00:32:26;0.00;0.00;0.00
65383;PMS5003;51986;52.788;41.368;2022-12-29T00:34:53;0.00;0.00;0.00
65383;PMS5003;51986;52.788;41.368;2022-12-29T00:37:20;0.00;0.00;0.00
65383;PMS5003;51986;52.788;41.368;2022-12-29T00:39:48;0.00;0.00;0.00
65383;PMS5003;51986;52.788;41.368;2022-12-29T00:42:15;1.00;1.00;0.00
65383;PMS5003;51986;52.788;41.368;2022-12-29T00:44:42;2.25;2.25;1.25
65383;PMS5003;51986;52.788;41.368;2022-12-29T00:47:09;1.00;0.00;0.00
65383;PMS5003;51986;52.788;41.368;2022-12-29T00:49:36;0.00;0.00;0.00
65383;PMS5003;51986;52.788;41.368;2022-12-29T00:52:04;0.00;0.00;0.00
65383;PMS5003;51986;52.788;41.368;2022-12-29T00:54:34;0.00;0.00;0.00
65383;PMS5003;51986;52.788;41.368;2022-12-29T00:57:03;1.00;1.00;0.00
65383;PMS5003;51986;52.788;41.368;2022-12-29T00:59:34;0.00;0.00;0.00
65383;PMS5003;51986;52.788;41.368;2022-12-29T01:02:02;0.00;0.00;0.00
65383;PMS5003;51986;52.788;41.368;2022-12-29T01:04:48;0.00;0.00;0.00
65383;PMS5003;51986;52.788;41.368;2022-12-29T01:07:15;0.00;0.00;0.00
65383;PMS5003;51986;52.788;41.368;2022-12-29T01:09:43;0.00;0.00;0.00
65383;PMS5003;51986;52.788;41.368;2022-12-29T01:12:11;0.00;0.00;0.00
65383;PMS5003;51986;52.788;41.368;2022-12-29T01:14:40;1.25;1.00;0.00
65383;PMS5003;51986;52.788;41.368;2022-12-29T01:17:07;1.00;1.00;0.00
65383;PMS5003;51986;52.788;41.368;2022-12-29T01:22:20;0.00;0.00;0.00
65383;PMS5003;51986;52.788;41.368;2022-12-29T01:24:47;0.00;0.00;0.00
65383;PMS5003;51986;52.788;41.368;2022-12-29T01:27:15;0.00;0.00;0.00
65383;PMS5003;51986;52.788;41.368;2022-12-29T01:29:43;2.75;2.75;2.75
65383;PMS5003;51986;52.788;41.368;2022-12-29T01:32:10;2.00;2.00;2.00
65383;PMS5003;51986;52.788;41.368;2022-12-29T01:34:37;0.00;0.00;0.00
65383;PMS5003;51986;52.788;41.368;2022-12-29T01:37:04;0.00;0.00;0.00
65383;PMS5003;51986;52.788;41.368;2022-12-29T01:39:32;0.00;0.00;0.00
65383;PMS5003;51986;52.788;41.368;2022-12-29T01:42:00;0.00;0.00;0.00
65383;PMS5003;51986;52.788;41.368;2022-12-29T01:47:18;0.00;0.00;0.00
65383;PMS5003;51986;52.788;41.368;2022-12-29T01:50:09;0.00;0.00;0.00
65383;PMS5003;51986;52.788;41.368;2022-12-29T01:52:42;0.00;0.00;0.00
65383;PMS5003;51986;52.788;41.368;2022-12-29T01:55:16;0.00;0.00;0.00
65383;PMS5003;51986;52.788;41.368;2022-12-29T01:57:46;1.00;1.00;0.00
65383;PMS5003;51986;52.788;41.368;2022-12-29T02:00:18;0.00;0.00;0.00
65383;PMS5003;51986;52.788;41.368;2022-12-29T02:02:47;0.50;0.50;0.00
65383;PMS5003;51986;52.788;41.368;2022-12-29T02:05:27;0.00;0.00;0.00
65383;PMS5003;51986;52.788;41.368;2022-12-29T02:08:14;0.00;0.00;0.00
65383;PMS5003;51986;52.788;41.368;2022-12-29T02:10:41;0.00;0.00;0.00
65383;PMS5003;51986;52.788;41.368;2022-12-29T02:13:10;0.00;0.00;0.00
65383;PMS5003;51986;52.788;41.368;2022-12-29T02:32:19;0.00;0.00;0.00
65383;PMS5003;51986;52.788;41.368;2022-12-29T02:42:51;0.00;0.00;0.00
65383;PMS5003;51986;52.788;41.368;2022-12-29T02:45:41;0.00;0.00;0.00
65383;PMS5003;51986;52.788;41.368;2022-12-29T02:48:37;1.00;1.00;1.00
65383;PMS5003;51986;52.788;41.368;2022-12-29T02:51:15;0.00;0.00;0.00
65383;PMS5003;51986;52.788;41.368;2022-12-29T02:53:47;0.00;0.00;0.00
65383;PMS5003;51986;52.788;41.368;2022-12-29T02:56:17;0.00;0.00;0.00
65383;PMS5003;51986;52.788;41.368;2022-12-29T02:58:45;2.00;1.00;1.00
65383;PMS5003;51986;52.788;41.368;2022-12-29T03:14:57;0.00;0.00;0.00
65383;PMS5003;51986;52.788;41.368;2022-12-29T03:17:35;0.00;0.00;0.00
65383;PMS5003;51986;52.788;41.368;2022-12-29T03:20:20;1.00;1.00;0.00
65383;PMS5003;51986;52.788;41.368;2022-12-29T03:22:54;1.00;0.00;0.00
65383;PMS5003;51986;52.788;41.368;2022-12-29T03:28:22;3.50;3.50;1.75
65383;PMS5003;51986;52.788;41.368;2022-12-29T03:30:53;12.00;10.75;8.25
65383;PMS5003;51986;52.788;41.368;2022-12-29T03:36:11;2.00;1.00;0.00
65383;PMS5003;51986;52.788;41.368;2022-12-29T03:38:46;1.00;0.00;0.00
65383;PMS5003;51986;52.788;41.368;2022-12-29T03:41:26;1.25;1.00;0.00
65383;PMS5003;51986;52.788;41.368;2022-12-29T03:43:59;2.50;1.00;0.00
65383;PMS5003;51986;52.788;41.368;2022-12-29T03:46:26;1.75;1.00;1.00
65383;PMS5003;51986;52.788;41.368;2022-12-29T03:48:53;3.00;3.00;2.00
65383;PMS5003;51986;52.788;41.368;2022-12-29T03:51:20;1.00;1.00;0.00
65383;PMS5003;51986;52.788;41.368;2022-12-29T03:53:47;0.00;0.00;0.00
65383;PMS5003;51986;52.788;41.368;2022-12-29T03:56:14;1.00;0.00;0.00
65383;PMS5003;51986;52.788;41.368;2022-12-29T03:58:44;4.00;3.50;3.50
65383;PMS5003;51986;52.788;41.368;2022-12-29T04:01:16;1.00;1.00;1.00
65383;PMS5003;51986;52.788;41.368;2022-12-29T04:03:44;1.00;1.00;1.00
65383;PMS5003;51986;52.788;41.368;2022-12-29T04:06:11;3.00;3.00;1.75
65383;PMS5003;51986;52.788;41.368;2022-12-29T04:08:58;5.50;4.50;3.25
65383;PMS5003;51986;52.788;41.368;2022-12-29T04:11:26;3.00;1.25;1.00
65383;PMS5003;51986;52.788;41.368;2022-12-29T04:13:59;2.00;1.00;1.00
65383;PMS5003;51986;52.788;41.368;2022-12-29T04:16:29;4.25;4.00;3.50
65383;PMS5003;51986;52.788;41.368;2022-12-29T04:18:56;0.25;0.00;0.00
65383;PMS5003;51986;52.788;41.368;2022-12-29T04:21:22;3.00;1.00;0.00
65383;PMS5003;51986;52.788;41.368;2022-12-29T04:23:50;3.00;3.00;1.00
65383;PMS5003;51986;52.788;41.368;2022-12-29T04:26:17;0.00;0.00;0.00
65383;PMS5003;51986;52.788;41.368;2022-12-29T04:28:52;0.00;0.00;0.00
65383;PMS5003;51986;52.788;41.368;2022-12-29T04:31:37;1.00;1.00;0.00
65383;PMS5003;51986;52.788;41.368;2022-12-29T04:34:05;0.00;0.00;0.00
65383;PMS5003;51986;52.788;41.368;2022-12-29T04:36:32;0.00;0.00;0.00
65383;PMS5003;51986;52.788;41.368;2022-12-29T04:39:00;1.00;1.00;0.00
65383;PMS5003;51986;52.788;41.368;2022-12-29T04:41:27;0.00;0.00;0.00
65383;PMS5003;51986;52.788;41.368;2022-12-29T04:43:54;0.75;0.75;0.75
65383;PMS5003;51986;52.788;41.368;2022-12-29T04:46:21;4.00;4.00;3.50
65383;PMS5003;51986;52.788;41.368;2022-12-29T04:48:54;3.00;3.00;2.00
65383;PMS5003;51986;52.788;41.368;2022-12-29T04:51:28;2.00;2.00;1.00
65383;PMS5003;51986;52.788;41.368;2022-12-29T04:53:55;0.00;0.00;0.00
65383;PMS5003;51986;52.788;41.368;2022-12-29T04:56:24;0.00;0.00;0.00
65383;PMS5003;51986;52.788;41.368;2022-12-29T04:58:51;0.00;0.00;0.00
65383;PMS5003;51986;52.788;41.368;2022-12-29T05:01:19;0.00;0.00;0.00
65383;PMS5003;51986;52.788;41.368;2022-12-29T05:04:05;0.00;0.00;0.00
65383;PMS5003;51986;52.788;41.368;2022-12-29T05:06:32;0.00;0.00;0.00
65383;PMS5003;51986;52.788;41.368;2022-12-29T05:09:00;0.00;0.00;0.00
65383;PMS5003;51986;52.788;41.368;2022-12-29T05:14:13;0.25;0.25;0.00
65383;PMS5003;51986;52.788;41.368;2022-12-29T05:16:41;0.00;0.00;0.00
65383;PMS5003;51986;52.788;41.368;2022-12-29T05:19:08;0.00;0.00;0.00
65383;PMS5003;51986;52.788;41.368;2022-12-29T05:21:36;0.00;0.00;0.00
65383;PMS5003;51986;52.788;41.368;2022-12-29T05:24:03;0.00;0.00;0.00
65383;PMS5003;51986;52.788;41.368;2022-12-29T05:26:31;0.00;0.00;0.00
65383;PMS5003;51986;52.788;41.368;2022-12-29T05:29:04;1.00;1.00;0.00
65383;PMS5003;51986;52.788;41.368;2022-12-29T05:31:31;0.00;0.00;0.00
65383;PMS5003;51986;52.788;41.368;2022-12-29T05:33:59;1.00;0.00;0.00
65383;PMS5003;51986;52.788;41.368;2022-12-29T05:36:27;2.50;2.25;1.50
65383;PMS5003;51986;52.788;41.368;2022-12-29T05:42:02;1.00;1.00;1.00
65383;PMS5003;51986;52.788;41.368;2022-12-29T05:44:55;2.00;1.00;1.00
65383;PMS5003;51986;52.788;41.368;2022-12-29T05:47:30;1.00;1.00;0.00
65383;PMS5003;51986;52.788;41.368;2022-12-29T05:50:21;1.00;1.00;0.00
65383;PMS5003;51986;52.788;41.368;2022-12-29T05:53:07;0.00;0.00;0.00
65383;PMS5003;51986;52.788;41.368;2022-12-29T05:55:36;0.00;0.00;0.00
65383;PMS5003;51986;52.788;41.368;2022-12-29T05:58:06;0.00;0.00;0.00
65383;PMS5003;51986;52.788;41.368;2022-12-29T06:00:33;0.00;0.00;0.00
65383;PMS5003;51986;52.788;41.368;2022-12-29T06:03:00;0.00;0.00;0.00
65383;PMS5003;51986;52.788;41.368;2022-12-29T06:05:27;0.00;0.00;0.00
65383;PMS5003;51986;52.788;41.368;2022-12-29T06:07:56;3.00;3.00;1.00
65383;PMS5003;51986;52.788;41.368;2022-12-29T06:10:41;2.00;1.00;0.00
65383;PMS5003;51986;52.788;41.368;2022-12-29T06:15:56;3.00;3.00;1.00
65383;PMS5003;51986;52.788;41.368;2022-12-29T06:18:24;2.00;2.00;1.00
65383;PMS5003;51986;52.788;41.368;2022-12-29T06:20:52;3.75;3.00;2.00
65383;PMS5003;51986;52.788;41.368;2022-12-29T06:23:19;1.00;1.00;0.00
65383;PMS5003;51986;52.788;41.368;2022-12-29T06:25:49;0.75;0.00;0.00
65383;PMS5003;51986;52.788;41.368;2022-12-29T06:28:16;1.00;1.00;1.00
65383;PMS5003;51986;52.788;41.368;2022-12-29T06:30:46;1.00;0.00;0.00
65383;PMS5003;51986;52.788;41.368;2022-12-29T06:33:13;0.75;0.00;0.00
65383;PMS5003;51986;52.788;41.368;2022-12-29T06:35:41;1.75;1.00;1.00
65383;PMS5003;51986;52.788;41.368;2022-12-29T06:38:09;0.00;0.00;0.00
65383;PMS5003;51986;52.788;41.368;2022-12-29T06:40:36;2.00;1.00;0.00
65383;PMS5003;51986;52.788;41.368;2022-12-29T06:43:03;1.00;1.00;0.00
65383;PMS5003;51986;52.788;41.368;2022-12-29T06:45:56;1.00;1.00;0.00
65383;PMS5003;51986;52.788;41.368;2022-12-29T06:48:23;1.00;1.00;0.00
65383;PMS5003;51986;52.788;41.368;2022-12-29T06:50:50;0.00;0.00;0.00
65383;PMS5003;51986;52.788;41.368;2022-12-29T06:53:35;1.00;1.00;0.25
65383;PMS5003;51986;52.788;41.368;2022-12-29T06:56:02;1.00;1.00;1.00
65383;PMS5003;51986;52.788;41.368;2022-12-29T06:58:29;2.00;2.00;2.00
65383;PMS5003;51986;52.788;41.368;2022-12-29T07:01:15;1.00;1.00;1.00
65383;PMS5003;51986;52.788;41.368;2022-12-29T07:03:42;0.00;0.00;0.00
65383;PMS5003;51986;52.788;41.368;2022-12-29T07:06:09;0.00;0.00;0.00
65383;PMS5003;51986;52.788;41.368;2022-12-29T07:08:36;0.00;0.00;0.00
65383;PMS5003;51986;52.788;41.368;2022-12-29T07:11:04;0.00;0.00;0.00
65383;PMS5003;51986;52.788;41.368;2022-12-29T07:13:31;0.00;0.00;0.00
65383;PMS5003;51986;52.788;41.368;2022-12-29T07:15:58;0.00;0.00;0.00
65383;PMS5003;51986;52.788;41.368;2022-12-29T07:18:25;0.00;0.00;0.00
65383;PMS5003;51986;52.788;41.368;2022-12-29T07:20:52;0.00;0.00;0.00
65383;PMS5003;51986;52.788;41.368;2022-12-29T07:23:18;0.00;0.00;0.00
65383;PMS5003;51986;52.788;41.368;2022-12-29T07:26:05;3.00;3.00;1.00
65383;PMS5003;51986;52.788;41.368;2022-12-29T07:28:34;1.00;1.00;1.00
65383;PMS5003;51986;52.788;41.368;2022-12-29T07:31:21;4.25;3.75;3.00
65383;PMS5003;51986;52.788;41.368;2022-12-29T07:33:50;1.00;1.00;1.00
65383;PMS5003;51986;52.788;41.368;2022-12-29T07:36:17;3.00;2.75;1.00
65383;PMS5003;51986;52.788;41.368;2022-12-29T07:38:44;2.00;2.00;2.00
65383;PMS5003;51986;52.788;41.368;2022-12-29T07:41:11;1.00;1.00;0.00
65383;PMS5003;51986;52.788;41.368;2022-12-29T07:43:38;0.00;0.00;0.00
65383;PMS5003;51986;52.788;41.368;2022-12-29T07:46:23;0.00;0.00;0.00
65383;PMS5003;51986;52.788;41.368;2022-12-29T07:49:10;0.75;0.75;0.00
65383;PMS5003;51986;52.788;41.368;2022-12-29T07:51:37;5.00;5.00;4.50
65383;PMS5003;51986;52.788;41.368;2022-12-29T07:54:04;1.00;1.00;0.00
65383;PMS5003;51986;52.788;41.368;2022-12-29T07:56:31;1.00;1.00;0.00
65383;PMS5003;51986;52.788;41.368;2022-12-29T07:58:58;1.00;1.00;0.00
65383;PMS5003;51986;52.788;41.368;2022-12-29T08:01:25;5.00;5.00;4.25
65383;PMS5003;51986;52.788;41.368;2022-12-29T08:03:52;6.00;6.00;6.00
65383;PMS5003;51986;52.788;41.368;2022-12-29T08:06:23;4.25;4.25;3.50
65383;PMS5003;51986;52.788;41.368;2022-12-29T08:08:50;2.00;2.00;2.00
65383;PMS5003;51986;52.788;41.368;2022-12-29T08:11:16;3.50;3.50;1.50
65383;PMS5003;51986;52.788;41.368;2022-12-29T08:13:43;6.50;6.50;5.25
65383;PMS5003;51986;52.788;41.368;2022-12-29T08:16:10;6.00;6.00;5.00
65383;PMS5003;51986;52.788;41.368;2022-12-29T08:18:37;6.00;5.75;4.75
65383;PMS5003;51986;52.788;41.368;2022-12-29T08:21:05;6.75;6.75;5.75
65383;PMS5003;51986;52.788;41.368;2022-12-29T08:23:32;10.00;9.00;7.00
65383;PMS5003;51986;52.788;41.368;2022-12-29T08:25:59;12.50;11.50;9.50
65383;PMS5003;51986;52.788;41.368;2022-12-29T08:28:29;6.00;5.75;4.00
65383;PMS5003;51986;52.788;41.368;2022-12-29T08:30:59;1.00;1.00;0.00
65383;PMS5003;51986;52.788;41.368;2022-12-29T08:33:28;4.00;3.50;3.00
65383;PMS5003;51986;52.788;41.368;2022-12-29T08:36:02;4.00;4.00;2.50
65383;PMS5003;51986;52.788;41.368;2022-12-29T08:38:31;8.50;8.50;8.00
65383;PMS5003;51986;52.788;41.368;2022-12-29T08:40:59;6.50;5.25;3.50
65383;PMS5003;51986;52.788;41.368;2022-12-29T08:43:26;4.00;4.00;2.00
65383;PMS5003;51986;52.788;41.368;2022-12-29T08:45:54;4.00;4.00;2.00
65383;PMS5003;51986;52.788;41.368;2022-12-29T08:48:21;9.50;8.75;8.25
65383;PMS5003;51986;52.788;41.368;2022-12-29T08:50:48;8.25;7.25;4.50
65383;PMS5003;51986;52.788;41.368;2022-12-29T08:53:15;4.00;4.00;2.00
65383;PMS5003;51986;52.788;41.368;2022-12-29T08:55:46;6.75;6.75;4.50
65383;PMS5003;51986;52.788;41.368;2022-12-29T08:58:28;6.75;6.00;4.00
65383;PMS5003;51986;52.788;41.368;2022-12-29T09:00:55;2.00;2.00;1.00
65383;PMS5003;51986;52.788;41.368;2022-12-29T09:03:24;8.50;7.75;6.00
65383;PMS5003;51986;52.788;41.368;2022-12-29T09:06:11;8.00;6.00;4.00
65383;PMS5003;51986;52.788;41.368;2022-12-29T09:08:38;14.00;12.00;9.50
65383;PMS5003;51986;52.788;41.368;2022-12-29T09:11:07;16.00;14.00;10.25
65383;PMS5003;51986;52.788;41.368;2022-12-29T09:13:39;15.00;14.00;12.00
65383;PMS5003;51986;52.788;41.368;2022-12-29T09:16:07;11.75;10.75;7.50
65383;PMS5003;51986;52.788;41.368;2022-12-29T09:18:34;7.00;6.00;4.00
65383;PMS5003;51986;52.788;41.368;2022-12-29T09:23:47;13.00;12.25;10.00
65383;PMS5003;51986;52.788;41.368;2022-12-29T09:26:14;15.00;14.00;12.00
65383;PMS5003;51986;52.788;41.368;2022-12-29T09:28:42;14.50;13.00;11.25
65383;PMS5003;51986;52.788;41.368;2022-12-29T09:31:09;8.00;6.75;4.50
65383;PMS5003;51986;52.788;41.368;2022-12-29T09:33:37;4.00;4.00;2.00
65383;PMS5003;51986;52.788;41.368;2022-12-29T09:36:04;11.00;10.75;8.75
65383;PMS5003;51986;52.788;41.368;2022-12-29T09:38:31;9.00;8.75;3.50
65383;PMS5003;51986;52.788;41.368;2022-12-29T09:41:05;10.75;9.75;7.25
65383;PMS5003;51986;52.788;41.368;2022-12-29T09:46:31;11.75;11.25;7.50
65383;PMS5003;51986;52.788;41.368;2022-12-29T09:51:43;3.75;3.50;2.00
65383;PMS5003;51986;52.788;41.368;2022-12-29T09:54:33;3.50;3.00;1.00
65383;PMS5003;51986;52.788;41.368;2022-12-29T09:57:19;5.25;5.25;2.25
65383;PMS5003;51986;52.788;41.368;2022-12-29T09:59:50;3.00;3.00;1.00
65383;PMS5003;51986;52.788;41.368;2022-12-29T10:02:37;6.25;6.00;5.00
65383;PMS5003;51986;52.788;41.368;2022-12-29T10:16:38;5.00;4.00;3.00
65383;PMS5003;51986;52.788;41.368;2022-12-29T10:24:45;12.00;11.00;8.00
65383;PMS5003;51986;52.788;41.368;2022-12-29T10:27:15;7.50;4.75;3.00
65383;PMS5003;51986;52.788;41.368;2022-12-29T10:29:45;9.75;8.75;7.50
65383;PMS5003;51986;52.788;41.368;2022-12-29T10:35:00;6.00;6.00;4.00
65383;PMS5003;51986;52.788;41.368;2022-12-29T10:40:25;9.25;9.25;5.00
65383;PMS5003;51986;52.788;41.368;2022-12-29T10:42:58;9.50;9.00;6.00
65383;PMS5003;51986;52.788;41.368;2022-12-29T10:45:28;12.00;10.75;8.00
65383;PMS5003;51986;52.788;41.368;2022-12-29T10:48:00;9.25;7.25;4.00
65383;PMS5003;51986;52.788;41.368;2022-12-29T10:50:35;4.00;4.00;2.00
65383;PMS5003;51986;52.788;41.368;2022-12-29T10:53:04;5.50;4.00;2.75
65383;PMS5003;51986;52.788;41.368;2022-12-29T10:55:33;6.50;5.00;3.25
65383;PMS5003;51986;52.788;41.368;2022-12-29T10:58:04;6.50;6.00;4.75
65383;PMS5003;51986;52.788;41.368;2022-12-29T11:00:33;4.25;3.50;1.50
65383;PMS5003;51986;52.788;41.368;2022-12-29T11:06:23;1.00;1.00;1.00
65383;PMS5003;51986;52.788;41.368;2022-12-29T11:09:02;2.00;2.00;2.00
65383;PMS5003;51986;52.788;41.368;2022-12-29T11:11:40;3.00;3.00;2.00
65383;PMS5003;51986;52.788;41.368;2022-12-29T11:14:14;1.50;1.00;1.00
65383;PMS5003;51986;52.788;41.368;2022-12-29T11:16:44;7.75;7.25;5.50
65383;PMS5003;51986;52.788;41.368;2022-12-29T11:19:28;4.75;4.50;2.25
65383;PMS5003;51986;52.788;41.368;2022-12-29T11:24:44;9.50;8.25;3.50
65383;PMS5003;51986;52.788;41.368;2022-12-29T11:27:20;7.50;7.50;5.50
65383;PMS5003;51986;52.788;41.368;2022-12-29T11:29:49;5.00;5.00;3.00
65383;PMS5003;51986;52.788;41.368;2022-12-29T11:32:24;7.00;5.75;5.00
65383;PMS5003;51986;52.788;41.368;2022-12-29T11:34:58;3.00;3.00;1.00
65383;PMS5003;51986;52.788;41.368;2022-12-29T11:40:06;4.75;4.50;3.00
65383;PMS5003;51986;52.788;41.368;2022-12-29T11:42:52;5.00;3.00;1.00
65383;PMS5003;51986;52.788;41.368;2022-12-29T11:47:54;3.25;3.00;2.50
65383;PMS5003;51986;52.788;41.368;2022-12-29T11:50:42;5.50;5.00;3.00
65383;PMS5003;51986;52.788;41.368;2022-12-29T11:53:33;3.75;3.00;1.00
65383;PMS5003;51986;52.788;41.368;2022-12-29T11:56:08;2.00;2.00;1.00
65383;PMS5003;51986;52.788;41.368;2022-12-29T11:58:39;1.00;1.00;0.00
65383;PMS5003;51986;52.788;41.368;2022-12-29T12:01:16;1.00;1.00;0.00
65383;PMS5003;51986;52.788;41.368;2022-12-29T12:03:48;1.00;1.00;0.00
65383;PMS5003;51986;52.788;41.368;2022-12-29T12:06:49;3.75;3.00;1.75
65383;PMS5003;51986;52.788;41.368;2022-12-29T12:09:23;3.50;3.50;3.00
65383;PMS5003;51986;52.788;41.368;2022-12-29T12:11:55;6.25;6.00;5.75
65383;PMS5003;51986;52.788;41.368;2022-12-29T12:17:21;3.75;3.00;2.25
65383;PMS5003;51986;52.788;41.368;2022-12-29T12:19:59;1.00;1.00;1.00
65383;PMS5003;51986;52.788;41.368;2022-12-29T12:22:47;3.50;3.25;2.00
65383;PMS5003;51986;52.788;41.368;2022-12-29T12:25:22;5.75;5.75;4.00
65383;PMS5003;51986;52.788;41.368;2022-12-29T12:27:57;5.00;4.50;2.50
65383;PMS5003;51986;52.788;41.368;2022-12-29T12:30:36;2.00;2.00;1.00
65383;PMS5003;51986;52.788;41.368;2022-12-29T12:36:03;3.00;3.00;0.00
65383;PMS5003;51986;52.788;41.368;2022-12-29T12:41:59;4.00;4.00;3.00
65383;PMS5003;51986;52.788;41.368;2022-12-29T12:44:29;5.25;5.00;3.00
65383;PMS5003;51986;52.788;41.368;2022-12-29T12:52:52;1.00;1.00;0.00
65383;PMS5003;51986;52.788;41.368;2022-12-29T12:55:35;3.00;3.00;1.75
65383;PMS5003;51986;52.788;41.368;2022-12-29T13:01:11;6.00;6.00;5.00
65383;PMS5003;51986;52.788;41.368;2022-12-29T13:06:53;5.50;5.50;3.75
65383;PMS5003;51986;52.788;41.368;2022-12-29T13:09:34;6.00;4.50;3.00
65383;PMS5003;51986;52.788;41.368;2022-12-29T13:15:06;3.00;3.00;1.00
65383;PMS5003;51986;52.788;41.368;2022-12-29T13:17:59;1.75;1.75;1.00
65383;PMS5003;51986;52.788;41.368;2022-12-29T13:20:43;1.00;1.00;0.00
65383;PMS5003;51986;52.788;41.368;2022-12-29T13:29:12;3.50;3.00;0.00
65383;PMS5003;51986;52.788;41.368;2022-12-29T13:37:09;3.00;2.00;1.00
65383;PMS5003;51986;52.788;41.368;2022-12-29T13:39:42;3.75;3.75;2.25
65383;PMS5003;51986;52.788;41.368;2022-12-29T13:42:16;3.00;3.00;1.00
65383;PMS5003;51986;52.788;41.368;2022-12-29T13:44:46;4.00;3.00;3.00
65383;PMS5003;51986;52.788;41.368;2022-12-29T13:47:38;1.50;1.00;1.00
65383;PMS5003;51986;52.788;41.368;2022-12-29T13:50:30;2.00;2.00;1.00
65383;PMS5003;51986;52.788;41.368;2022-12-29T13:53:02;4.75;3.75;1.25
65383;PMS5003;51986;52.788;41.368;2022-12-29T13:58:20;5.50;5.50;3.00
65383;PMS5003;51986;52.788;41.368;2022-12-29T14:00:57;5.00;5.00;3.00
65383;PMS5003;51986;52.788;41.368;2022-12-29T14:06:16;9.00;8.75;4.00
65383;PMS5003;51986;52.788;41.368;2022-12-29T14:08:46;8.25;7.00;3.25
65383;PMS5003;51986;52.788;41.368;2022-12-29T14:11:15;10.25;9.00;5.50
65383;PMS5003;51986;52.788;41.368;2022-12-29T14:13:44;6.25;5.00;2.50
65383;PMS5003;51986;52.788;41.368;2022-12-29T14:18:55;4.25;3.00;1.00
65383;PMS5003;51986;52.788;41.368;2022-12-29T14:21:31;5.00;5.00;2.50
65383;PMS5003;51986;52.788;41.368;2022-12-29T14:26:53;5.75;5.75;3.00
65383;PMS5003;51986;52.788;41.368;2022-12-29T14:31:53;8.00;7.00;5.00
65383;PMS5003;51986;52.788;41.368;2022-12-29T14:36:56;3.00;3.00;1.00
65383;PMS5003;51986;52.788;41.368;2022-12-29T14:44:48;10.75;10.75;5.50
65383;PMS5003;51986;52.788;41.368;2022-12-29T14:47:20;14.25;11.00;6.00
65383;PMS5003;51986;52.788;41.368;2022-12-29T14:49:53;4.75;3.25;0.00
65383;PMS5003;51986;52.788;41.368;2022-12-29T14:52:22;3.00;2.00;0.00
65383;PMS5003;51986;52.788;41.368;2022-12-29T14:54:52;5.00;3.00;1.50
65383;PMS5003;51986;52.788;41.368;2022-12-29T14:57:39;5.00;4.75;2.00
65383;PMS5003;51986;52.788;41.368;2022-12-29T15:00:22;5.50;5.25;3.00
65383;PMS5003;51986;52.788;41.368;2022-12-29T15:03:42;7.50;7.00;4.00
65383;PMS5003;51986;52.788;41.368;2022-12-29T15:06:07;5.00;4.00;1.25
65383;PMS5003;51986;52.788;41.368;2022-12-29T15:08:42;5.00;3.00;1.00
65383;PMS5003;51986;52.788;41.368;2022-12-29T15:11:20;9.00;7.00;5.25
65383;PMS5003;51986;52.788;41.368;2022-12-29T15:13:50;10.50;8.25;6.25
65383;PMS5003;51986;52.788;41.368;2022-12-29T15:16:39;11.00;9.00;5.25
65383;PMS5003;51986;52.788;41.368;2022-12-29T15:19:05;11.00;9.00;5.00
65383;PMS5003;51986;52.788;41.368;2022-12-29T15:21:48;11.00;9.00;5.00
65383;PMS5003;51986;52.788;41.368;2022-12-29T15:24:15;12.25;9.25;7.25
65383;PMS5003;51986;52.788;41.368;2022-12-29T15:26:46;14.00;11.00;8.00
65383;PMS5003;51986;52.788;41.368;2022-12-29T15:32:15;10.25;8.50;3.00
65383;PMS5003;51986;52.788;41.368;2022-12-29T15:34:44;12.00;10.00;5.00
65383;PMS5003;51986;52.788;41.368;2022-12-29T15:37:20;11.00;10.00;5.00
65383;PMS5003;51986;52.788;41.368;2022-12-29T15:39:49;9.00;8.00;4.25
65383;PMS5003;51986;52.788;41.368;2022-12-29T15:45:06;12.00;10.00;6.00
65383;PMS5003;51986;52.788;41.368;2022-12-29T15:47:37;14.00;12.00;8.00
65383;PMS5003;51986;52.788;41.368;2022-12-29T15:50:19;9.50;9.50;3.00
65383;PMS5003;51986;52.788;41.368;2022-12-29T15:52:55;7.00;5.00;1.00
65383;PMS5003;51986;52.788;41.368;2022-12-29T15:55:28;9.50;7.00;4.50
65383;PMS5003;51986;52.788;41.368;2022-12-29T15:58:05;8.25;7.00;3.00
65383;PMS5003;51986;52.788;41.368;2022-12-29T16:00:47;8.25;7.00;4.50
65383;PMS5003;51986;52.788;41.368;2022-12-29T16:03:16;8.00;6.00;2.00
65383;PMS5003;51986;52.788;41.368;2022-12-29T16:05:50;6.75;6.50;3.25
65383;PMS5003;51986;52.788;41.368;2022-12-29T16:08:27;11.00;9.00;5.00
65383;PMS5003;51986;52.788;41.368;2022-12-29T16:10:59;8.25;7.00;3.00
65383;PMS5003;51986;52.788;41.368;2022-12-29T16:13:30;9.00;7.00;4.75
65383;PMS5003;51986;52.788;41.368;2022-12-29T16:16:12;14.25;12.50;9.75
65383;PMS5003;51986;52.788;41.368;2022-12-29T16:18:44;12.00;10.25;5.25
65383;PMS5003;51986;52.788;41.368;2022-12-29T16:21:20;9.00;5.25;2.75
65383;PMS5003;51986;52.788;41.368;2022-12-29T16:24:02;10.00;7.00;3.00
65383;PMS5003;51986;52.788;41.368;2022-12-29T16:26:33;7.25;5.00;2.00
65383;PMS5003;51986;52.788;41.368;2022-12-29T16:29:01;9.00;7.00;3.00
65383;PMS5003;51986;52.788;41.368;2022-12-29T16:31:38;10.75;9.75;5.00
65383;PMS5003;51986;52.788;41.368;2022-12-29T16:34:26;12.25;11.50;5.50
65383;PMS5003;51986;52.788;41.368;2022-12-29T16:36:58;17.00;14.50;10.00
65383;PMS5003;51986;52.788;41.368;2022-12-29T16:39:48;20.00;17.00;12.00
65383;PMS5003;51986;52.788;41.368;2022-12-29T16:43:00;14.75;13.00;8.00
65383;PMS5003;51986;52.788;41.368;2022-12-29T16:50:34;12.00;12.00;6.50
65383;PMS5003;51986;52.788;41.368;2022-12-29T16:53:05;16.25;15.00;10.00
65383;PMS5003;51986;52.788;41.368;2022-12-29T16:55:50;15.00;14.00;9.00
65383;PMS5003;51986;52.788;41.368;2022-12-29T16:58:21;13.75;13.00;5.75
65383;PMS5003;51986;52.788;41.368;2022-12-29T17:00:54;12.00;11.00;5.00
65383;PMS5003;51986;52.788;41.368;2022-12-29T17:03:40;13.00;11.75;6.75
65383;PMS5003;51986;52.788;41.368;2022-12-29T17:06:18;12.75;12.00;5.00
65383;PMS5003;51986;52.788;41.368;2022-12-29T17:08:49;12.50;11.00;3.75
65383;PMS5003;51986;52.788;41.368;2022-12-29T17:11:27;11.00;10.00;4.00
65383;PMS5003;51986;52.788;41.368;2022-12-29T17:13:58;13.00;11.00;5.00
65383;PMS5003;51986;52.788;41.368;2022-12-29T17:16:25;13.00;12.00;5.00
65383;PMS5003;51986;52.788;41.368;2022-12-29T17:18:53;6.00;6.00;2.00
65383;PMS5003;51986;52.788;41.368;2022-12-29T17:21:21;11.75;11.25;7.75
65383;PMS5003;51986;52.788;41.368;2022-12-29T17:23:49;11.00;10.00;4.00
65383;PMS5003;51986;52.788;41.368;2022-12-29T17:26:16;8.00;8.00;3.00